Mercer County Airport
KBLF : now visible

Airfield :











YOU CAN JOIN US ON...

 
LOGIN :

Register | Disclaimer

   EN    FR    IT 

 









Legend :    VFR   Marginal VFR   IFR   Intensive IFR   Very Intensive IFR
Visi :
Ceiling :
>= 8 km
>= 3000ft
5 to 8 km
1000 to 3000 ft
1500m to 5 km
500 to 1000 ft
800 to 1500m
200 to 500 ft
< 800m
< 200 ft
Symbols :   Thunderstorms  Fog  Heavy snow  Heavy precipitations  Wind > 20 kt






- Airport Elevation : 2857 ft
- IATA code : BLF


KBLF - Mercer County

CURRENT METAR :
  • 220152Z AUTO 01003KT 10SM OVC017 M07/M10 A3027 RMK AO2 SLP289 T10721100

EXPIRED METARs :
  • 220100Z AUTO 00000KT 10SM OVC015 M07/M11 A3026 RMK AO2 T10721106
  • 220052Z AUTO 00000KT 10SM OVC014 M07/M10 A3026 RMK AO2 SLP289 T10721100
  • 212352Z AUTO VRB03KT 10SM OVC014 M07/M11 A3026 RMK AO2 SLP285 T10721106 11067 21072 50005
  • 212334Z AUTO 07003KT 10SM OVC014 M07/M11 A3026 RMK AO2 T10671106

TAF KBLF
Valid from the 22 at 00:00 until the 23 at 00:00 UTC


212320Z 2200/2224 VRB03KT P6SM OVC015
FM220900 00000KT P6SM SCT015
TEMPO 2209/2212 4SM BR SCT007 BKN015
FM221300 VRB03KT P6SM FEW250
KZID FIR / North America



MET'MAP, your aeronautical weather chart ! - Copyright ORBIFLY December 2007 - Disclaimer

ORBIFLY MET'MAP TEAM :

Programming & Development : Alexandra Zaïnal
Concept & original design : Baudouin d'Aumeries
Assistance for programming : Marc-Olivier Méhu
Technical & hardware support : Manuel Goepfert

Contact : metmap@orbifly.com




SOURCES & CREDITS :

   NOAA       Earth
Advisory